Time;durP1;ratioP1;P1;durP2;ratioP2;P2;SDS_P1;SDS_P2;PMS_P1;PMS_P2;Temp;Humidity;BMP_temperature;BMP_pressure;BME280_temperature;BME280_humidity;BME280_pressure;Samples;Min_cycle;Max_cycle;Signal;HPM_P1;HPM_P2
2021/09/08 00:00:53;;;;;;;11.70;8.65;;;;;;;13.41;83.63;101346.91;5021834;28;20041;-80
2021/09/08 00:03:18;;;;;;;13.35;10.02;;;;;;;13.41;84.03;101338.94;5019519;28;20034;-80
2021/09/08 00:05:44;;;;;;;14.82;10.40;;;;;;;13.39;83.91;101343.41;5020005;28;20041;-80
2021/09/08 00:08:09;;;;;;;11.68;8.32;;;;;;;13.37;83.71;101342.50;5018817;28;20040;-80
2021/09/08 00:10:34;;;;;;;9.10;7.53;;;;;;;13.36;83.06;101335.44;5019949;28;20042;-80
2021/09/08 00:13:00;;;;;;;12.63;9.18;;;;;;;13.31;82.95;101331.94;5020488;28;20052;-80
2021/09/08 00:15:25;;;;;;;11.95;8.02;;;;;;;13.25;83.54;101334.56;5020669;28;20038;-80
2021/09/08 00:17:51;;;;;;;11.05;8.32;;;;;;;13.24;83.59;101332.81;5019335;28;20464;-79
2021/09/08 00:20:16;;;;;;;10.75;7.60;;;;;;;13.26;83.62;101328.41;5021363;28;20508;-79
2021/09/08 00:22:44;;;;;;;9.43;7.15;;;;;;;13.26;82.98;101325.75;5020107;28;20045;-80
2021/09/08 00:25:10;;;;;;;10.95;7.50;;;;;;;13.24;83.10;101335.47;5016713;28;20026;-80
2021/09/08 00:27:35;;;;;;;8.50;6.72;;;;;;;13.25;82.86;101335.44;5021688;28;20045;-80
2021/09/08 00:30:01;;;;;;;8.35;6.60;;;;;;;13.22;83.04;101330.16;5024122;28;20037;-79
2021/09/08 00:32:26;;;;;;;8.45;6.85;;;;;;;13.16;83.84;101335.50;5021146;28;20499;-80
2021/09/08 00:34:53;;;;;;;10.00;7.65;;;;;;;13.09;83.63;101337.28;5023043;28;20045;-80
2021/09/08 00:37:18;;;;;;;9.88;8.50;;;;;;;13.09;83.53;101337.28;5017442;28;20029;-80
2021/09/08 00:39:44;;;;;;;10.48;8.20;;;;;;;13.11;83.62;101337.28;5014185;28;20037;-80
2021/09/08 00:42:15;;;;;;;9.57;7.10;;;;;;;13.08;83.76;101338.19;5018629;28;20041;-80
2021/09/08 00:44:42;;;;;;;10.35;7.93;;;;;;;13.01;84.27;101336.44;5016536;28;20045;-79
2021/09/08 00:47:12;;;;;;;9.82;8.18;;;;;;;13.03;84.36;101328.47;5000555;28;20040;-80
2021/09/08 00:49:38;;;;;;;9.52;7.78;;;;;;;13.03;84.15;101334.66;5014674;28;20148;-79
2021/09/08 00:52:10;;;;;;;10.25;8.00;;;;;;;13.00;83.76;101329.38;5018094;28;20037;-79
2021/09/08 00:54:36;;;;;;;10.60;8.98;;;;;;;12.99;83.81;101332.03;5015664;28;20534;-80
2021/09/08 00:57:08;;;;;;;11.95;9.80;;;;;;;12.97;83.24;101332.03;5018320;28;20084;-80
2021/09/08 00:59:34;;;;;;;11.98;9.00;;;;;;;12.94;83.67;101326.72;5017991;28;20041;-80
2021/09/08 01:02:04;;;;;;;9.90;8.32;;;;;;;12.93;84.17;101335.56;5017997;28;20113;-80
2021/09/08 01:04:32;;;;;;;11.32;9.02;;;;;;;12.90;84.87;101327.63;5014996;28;20104;-79
2021/09/08 01:06:59;;;;;;;11.13;7.90;;;;;;;12.86;85.21;101336.47;5033140;28;20037;-80
2021/09/08 01:09:27;;;;;;;13.18;9.18;;;;;;;12.80;85.07;101340.03;5016535;28;20026;-80
2021/09/08 01:11:52;;;;;;;9.07;6.30;;;;;;;12.81;84.75;101338.25;5012086;28;20038;-80
2021/09/08 01:14:18;;;;;;;8.55;6.80;;;;;;;12.81;84.02;101340.91;5024644;28;20046;-80
2021/09/08 01:16:48;;;;;;;9.05;6.28;;;;;;;12.72;84.30;101340.03;5042197;28;20034;-80
2021/09/08 01:19:13;;;;;;;9.70;6.78;;;;;;;12.74;84.26;101336.53;5025270;28;20529;-80
2021/09/08 01:21:38;;;;;;;8.05;6.63;;;;;;;12.76;83.98;101334.72;5018132;28;20128;-80
2021/09/08 01:24:06;;;;;;;8.48;6.68;;;;;;;12.74;84.05;101331.22;5012088;28;20061;-80
2021/09/08 01:26:31;;;;;;;10.60;7.47;;;;;;;12.70;84.41;101332.97;5023875;28;20042;-80
2021/09/08 01:28:56;;;;;;;8.90;6.40;;;;;;;12.70;83.65;101328.56;5006912;28;20049;-80
2021/09/08 01:31:22;;;;;;;9.60;7.57;;;;;;;12.67;83.12;101328.56;5023441;28;20038;-80
2021/09/08 01:33:47;;;;;;;8.98;7.15;;;;;;;12.64;83.53;101327.69;5018865;28;20065;-80
2021/09/08 01:36:12;;;;;;;10.77;7.93;;;;;;;12.63;83.97;101324.19;5021485;28;20093;-80
2021/09/08 01:38:38;;;;;;;10.82;7.78;;;;;;;12.66;83.73;101325.94;5023034;28;20038;-80
2021/09/08 01:41:03;;;;;;;9.20;7.80;;;;;;;12.66;83.64;101328.59;5005613;28;20046;-80
2021/09/08 01:43:28;;;;;;;13.73;7.97;;;;;;;12.68;84.01;101330.34;5013387;28;20046;-80
2021/09/08 01:45:54;;;;;;;11.02;7.57;;;;;;;12.69;83.30;101324.16;5022747;28;20038;-80
2021/09/08 01:48:19;;;;;;;10.75;8.88;;;;;;;12.66;83.58;101324.16;5021564;28;20045;-80
2021/09/08 01:50:46;;;;;;;10.40;8.52;;;;;;;12.63;83.36;101316.22;5021149;28;20527;-80
2021/09/08 01:53:12;;;;;;;12.07;9.35;;;;;;;12.60;83.50;101317.97;5021622;28;20062;-79
2021/09/08 01:55:38;;;;;;;12.57;9.15;;;;;;;12.59;84.11;101317.09;5020970;28;20088;-80
2021/09/08 01:58:03;;;;;;;10.98;9.05;;;;;;;12.59;84.34;101317.09;5021663;28;20042;-80
2021/09/08 02:00:29;;;;;;;11.98;9.48;;;;;;;12.58;84.68;101320.66;5021803;28;20048;-79
2021/09/08 02:02:55;;;;;;;11.25;9.02;;;;;;;12.55;84.55;101317.09;5013520;28;20129;-80
2021/09/08 02:05:20;;;;;;;15.57;11.68;;;;;;;12.56;84.32;101321.53;5018868;28;20041;-81
2021/09/08 02:07:45;;;;;;;10.02;8.43;;;;;;;12.50;83.75;101314.50;5002775;28;20065;-80
2021/09/08 02:10:12;;;;;;;7.03;5.50;;;;;;;12.44;83.89;101325.97;5021862;28;20403;-81
2021/09/08 02:12:38;;;;;;;8.38;6.10;;;;;;;12.30;84.04;101319.81;5000540;28;20033;-80
2021/09/08 02:15:05;;;;;;;8.80;6.50;;;;;;;12.25;84.99;101319.78;5002701;28;20038;-80
2021/09/08 02:17:31;;;;;;;12.82;9.05;;;;;;;12.18;84.86;101312.75;5020252;28;20056;-81
2021/09/08 02:19:56;;;;;;;13.23;10.38;;;;;;;12.11;84.77;101321.56;5018115;28;20045;-80
2021/09/08 02:22:22;;;;;;;11.35;7.93;;;;;;;12.13;85.23;101314.53;5019460;28;20508;-80
2021/09/08 02:24:47;;;;;;;12.52;9.43;;;;;;;12.16;84.82;101313.66;5017960;28;20132;-79
2021/09/08 02:27:12;;;;;;;10.18;8.20;;;;;;;12.16;85.00;101314.53;4984907;28;20049;-81
2021/09/08 02:29:38;;;;;;;12.75;9.00;;;;;;;12.12;84.66;101312.75;5016919;28;20449;-80
2021/09/08 02:32:04;;;;;;;13.10;10.05;;;;;;;12.15;85.45;101318.03;5016969;28;20108;-80
2021/09/08 02:34:30;;;;;;;11.93;9.93;;;;;;;12.21;85.24;101314.53;5015430;28;20088;-80
2021/09/08 02:36:55;;;;;;;11.98;8.95;;;;;;;12.21;84.62;101312.75;5016944;28;20128;-81
2021/09/08 02:39:20;;;;;;;11.13;7.97;;;;;;;12.16;84.67;101311.88;5014376;28;20037;-81
2021/09/08 02:41:45;;;;;;;10.40;7.32;;;;;;;12.13;84.46;101306.59;5031039;28;20086;-81
2021/09/08 02:44:11;;;;;;;9.18;7.35;;;;;;;12.13;84.36;101300.38;5014003;28;20038;-81
2021/09/08 02:46:36;;;;;;;8.65;6.82;;;;;;;12.05;83.81;101305.69;4981421;28;20048;-81
2021/09/08 02:49:01;;;;;;;8.25;6.05;;;;;;;11.98;83.52;101301.28;5014113;28;20038;-80
2021/09/08 02:51:27;;;;;;;10.18;7.80;;;;;;;11.93;83.60;101298.63;5014072;28;20128;-82
2021/09/08 02:53:52;;;;;;;9.48;7.53;;;;;;;11.88;83.71;101299.53;5013530;28;20096;-81
2021/09/08 02:56:17;;;;;;;10.35;7.50;;;;;;;11.88;83.72;101299.53;5015641;28;20033;-81
2021/09/08 02:58:43;;;;;;;8.70;6.75;;;;;;;11.87;84.62;101303.03;5014637;28;20038;-81
2021/09/08 03:01:11;;;;;;;138.85;19.90;;;;;;;11.89;84.99;101303.91;5014109;28;20046;-81
2021/09/08 03:03:37;;;;;;;9.50;7.50;;;;;;;11.83;85.40;101307.41;4993580;28;20128;-81
2021/09/08 03:06:03;;;;;;;9.02;7.07;;;;;;;11.82;84.93;101301.25;5009911;28;20056;-81
2021/09/08 03:08:28;;;;;;;9.02;6.07;;;;;;;11.81;85.34;101306.53;5014433;28;20037;-81
2021/09/08 03:10:53;;;;;;;8.18;6.00;;;;;;;11.75;85.35;101304.75;5030145;28;20037;-81
2021/09/08 03:13:19;;;;;;;10.52;6.03;;;;;;;11.75;85.51;101307.41;5015107;28;20041;-81
2021/09/08 03:15:45;;;;;;;8.05;5.72;;;;;;;11.77;84.93;101302.13;5014976;28;20141;-81
2021/09/08 03:18:11;;;;;;;7.55;6.10;;;;;;;11.78;84.85;101293.28;5015167;28;20035;-81
2021/09/08 03:20:37;;;;;;;7.05;5.85;;;;;;;11.74;84.87;101300.34;5015008;28;20041;-81
2021/09/08 03:23:02;;;;;;;8.40;6.72;;;;;;;11.77;84.82;101299.47;5014383;28;20056;-80
2021/09/08 03:25:28;;;;;;;9.65;5.85;;;;;;;11.73;84.51;101305.63;5015365;28;20037;-82
2021/09/08 03:27:54;;;;;;;10.60;7.38;;;;;;;11.68;84.32;101300.31;5018744;28;20115;-80
2021/09/08 03:30:19;;;;;;;12.02;10.52;;;;;;;11.71;85.22;101291.50;5018934;28;20504;-80
2021/09/08 03:32:44;;;;;;;9.18;6.60;;;;;;;11.69;84.93;101291.53;5018667;28;20443;-81
2021/09/08 03:35:11;;;;;;;7.55;5.93;;;;;;;11.66;84.89;101294.19;5002237;28;20038;-81
2021/09/08 03:37:37;;;;;;;8.80;5.68;;;;;;;11.63;84.80;101289.75;5001466;28;20034;-80
2021/09/08 03:40:04;;;;;;;7.22;5.85;;;;;;;11.61;84.77;101293.28;5018831;28;20049;-80
2021/09/08 03:42:29;;;;;;;6.63;4.85;;;;;;;11.58;84.52;101291.53;5016954;28;20045;-80
2021/09/08 03:44:55;;;;;;;6.95;5.50;;;;;;;11.59;84.58;101289.75;5016130;28;20038;-80
2021/09/08 03:47:20;;;;;;;7.70;5.80;;;;;;;11.58;84.47;101295.91;5031335;28;20066;-80
2021/09/08 03:49:46;;;;;;;7.97;6.07;;;;;;;11.59;85.12;101289.75;4998513;28;20065;-80
2021/09/08 03:52:16;;;;;;;9.45;7.20;;;;;;;11.64;84.96;101285.34;5016318;28;20042;-80
2021/09/08 03:54:41;;;;;;;9.82;7.38;;;;;;;11.60;84.67;101287.09;5005475;28;20030;-79
2021/09/08 03:57:07;;;;;;;10.82;8.32;;;;;;;11.56;84.52;101287.97;5013173;28;20620;-80
2021/09/08 03:59:36;;;;;;;9.13;7.32;;;;;;;11.56;84.88;101284.47;5012486;28;20451;-79
2021/09/08 04:02:02;;;;;;;14.70;10.75;;;;;;;11.56;84.60;101282.69;5013431;28;20037;-78
2021/09/08 04:07:09;;;;;;;11.30;8.90;;;;;;;11.44;84.78;101277.38;5069989;22;20702;-79
2021/09/08 04:09:37;;;;;;;14.73;11.45;;;;;;;11.43;84.72;101285.31;5044681;28;20410;-80
2021/09/08 04:12:03;;;;;;;12.88;9.95;;;;;;;11.39;84.75;101282.63;5042182;28;20506;-79
2021/09/08 04:14:28;;;;;;;12.15;10.20;;;;;;;11.37;84.79;101280.88;5044892;28;20061;-78
2021/09/08 04:16:53;;;;;;;12.38;8.98;;;;;;;11.35;84.82;101277.38;5044341;28;20036;-80
2021/09/08 04:19:20;;;;;;;22.42;14.63;;;;;;;11.37;85.71;101284.44;5044997;28;20525;-80
2021/09/08 04:21:45;;;;;;;18.65;12.57;;;;;;;11.46;85.99;101285.31;5023287;28;20026;-79
2021/09/08 04:24:11;;;;;;;17.42;13.70;;;;;;;11.50;85.81;101281.78;5040159;28;20049;-79
2021/09/08 04:26:36;;;;;;;18.15;14.55;;;;;;;11.52;85.08;101275.63;5012894;28;20045;-80
2021/09/08 04:29:01;;;;;;;14.65;12.48;;;;;;;11.49;84.91;101274.75;5039747;28;20041;-79
2021/09/08 04:31:26;;;;;;;16.05;13.90;;;;;;;11.47;84.96;101276.50;5033103;28;20056;-80
2021/09/08 04:33:52;;;;;;;16.63;14.82;;;;;;;11.51;85.29;101278.28;5036494;28;20073;-80
2021/09/08 04:36:17;;;;;;;19.38;14.35;;;;;;;11.55;84.63;101274.75;5037462;28;20065;-80
2021/09/08 04:38:45;;;;;;;15.15;13.43;;;;;;;11.53;85.07;101282.69;5043761;28;20033;-80
2021/09/08 04:41:14;;;;;;;15.07;13.45;;;;;;;11.50;85.73;101272.13;5023143;28;20096;-80
2021/09/08 04:43:40;;;;;;;13.23;11.75;;;;;;;11.44;86.38;101268.56;5044488;28;20137;-80
2021/09/08 04:46:06;;;;;;;12.57;11.18;;;;;;;11.41;86.58;101272.97;5045714;28;20045;-81
2021/09/08 04:48:31;;;;;;;13.50;12.10;;;;;;;11.40;87.00;101268.56;5045116;28;20033;-79
2021/09/08 04:50:56;;;;;;;11.15;9.95;;;;;;;11.44;86.50;101265.94;5035650;28;20030;-80
2021/09/08 04:53:22;;;;;;;12.40;9.70;;;;;;;11.52;86.44;101269.47;5047793;28;20044;-81
2021/09/08 04:55:47;;;;;;;11.27;10.02;;;;;;;11.52;86.44;101269.47;5019596;28;20045;-79
2021/09/08 04:58:14;;;;;;;13.27;9.85;;;;;;;11.57;86.48;101265.94;5043999;28;20061;-80
2021/09/08 05:00:39;;;;;;;12.77;10.55;;;;;;;11.67;86.00;101261.56;5054975;28;20032;-80
2021/09/08 05:03:04;;;;;;;13.05;9.73;;;;;;;11.75;85.69;101273.00;5056071;28;20137;-81
2021/09/08 05:05:29;;;;;;;15.60;11.65;;;;;;;11.83;85.72;101271.25;5055765;28;20505;-80
2021/09/08 05:07:55;;;;;;;21.13;15.15;;;;;;;11.93;85.34;101260.72;5049706;28;20471;-80
2021/09/08 05:10:20;;;;;;;20.00;15.07;;;;;;;12.01;85.69;101265.13;5044847;28;20033;-80
2021/09/08 05:12:45;;;;;;;19.13;14.80;;;;;;;12.10;85.51;101266.88;5047408;28;20114;-80
2021/09/08 05:15:11;;;;;;;16.55;12.75;;;;;;;12.16;84.92;101264.25;5043609;28;20076;-80
2021/09/08 05:17:36;;;;;;;14.73;11.95;;;;;;;12.15;84.65;101270.41;5020843;28;20028;-80
2021/09/08 05:20:06;;;;;;;14.88;11.50;;;;;;;12.14;84.81;101268.66;5039929;28;20036;-80
2021/09/08 05:22:31;;;;;;;16.05;11.15;;;;;;;12.20;84.61;101271.28;5040093;28;20059;-79
2021/09/08 05:24:57;;;;;;;14.57;11.50;;;;;;;12.26;84.30;101273.03;5005508;28;20499;-81
2021/09/08 05:27:23;;;;;;;14.40;11.52;;;;;;;12.34;83.96;101267.72;5022177;28;20376;-81
2021/09/08 05:29:48;;;;;;;13.80;10.68;;;;;;;12.40;84.16;101265.97;5039386;28;20037;-80
2021/09/08 05:32:14;;;;;;;14.63;11.02;;;;;;;12.50;84.06;101266.84;5020713;28;20061;-80
2021/09/08 05:34:39;;;;;;;14.13;10.82;;;;;;;12.59;83.84;101268.56;5048533;28;20541;-80
2021/09/08 05:37:04;;;;;;;15.98;13.75;;;;;;;12.69;83.74;101271.19;5045708;28;20084;-80
2021/09/08 05:39:30;;;;;;;14.30;12.52;;;;;;;12.76;83.31;101271.16;5048817;28;20040;-80
2021/09/08 05:41:55;;;;;;;16.75;13.52;;;;;;;12.84;83.02;101269.38;5048822;28;20092;-81
2021/09/08 05:44:20;;;;;;;17.85;13.57;;;;;;;12.92;82.92;101271.09;5027719;28;20042;-80
2021/09/08 05:46:45;;;;;;;16.65;13.27;;;;;;;13.02;82.56;101268.41;5038314;28;20049;-79
2021/09/08 05:49:12;;;;;;;16.52;13.52;;;;;;;13.07;82.74;101272.81;5046805;28;20029;-81
2021/09/08 05:51:39;;;;;;;18.98;15.38;;;;;;;13.16;82.51;101277.19;5037634;28;20107;-80
2021/09/08 05:54:06;;;;;;;16.42;13.00;;;;;;;13.24;82.53;101267.44;5045165;28;20399;-80
2021/09/08 05:56:32;;;;;;;15.23;11.50;;;;;;;13.34;82.12;101271.81;5047148;28;20044;-79
2021/09/08 05:58:57;;;;;;;14.63;11.25;;;;;;;13.40;82.19;101276.22;5047281;28;20032;-80
2021/09/08 06:01:22;;;;;;;17.10;12.57;;;;;;;13.48;82.28;101276.16;5046656;28;20116;-80
2021/09/08 06:03:48;;;;;;;13.95;11.07;;;;;;;13.56;82.23;101279.63;5046514;28;20418;-80
2021/09/08 06:06:13;;;;;;;15.93;12.93;;;;;;;13.66;82.15;101273.38;5045530;28;20643;-80
2021/09/08 06:08:38;;;;;;;17.42;14.15;;;;;;;13.75;81.83;101273.34;5030426;28;20055;-80
2021/09/08 06:11:04;;;;;;;15.50;12.32;;;;;;;13.85;81.57;101276.78;5044950;28;20037;-80
2021/09/08 06:13:29;;;;;;;14.35;11.30;;;;;;;13.91;81.45;101274.09;5038491;28;20029;-81
2021/09/08 06:15:54;;;;;;;18.85;14.10;;;;;;;13.98;81.83;101270.47;5044997;28;20034;-80
2021/09/08 06:18:20;;;;;;;15.77;12.35;;;;;;;13.98;81.96;101275.78;5048117;28;20076;-80
2021/09/08 06:20:45;;;;;;;15.32;11.93;;;;;;;14.06;82.01;101277.50;5038779;28;20053;-80
2021/09/08 06:23:11;;;;;;;15.77;12.38;;;;;;;14.16;81.91;101268.56;5044557;28;20108;-80
2021/09/08 06:25:38;;;;;;;14.68;12.38;;;;;;;14.28;81.76;101263.16;5036841;28;20488;-80
2021/09/08 06:28:03;;;;;;;15.07;12.38;;;;;;;14.41;81.56;101275.41;5042793;28;20040;-80
2021/09/08 06:30:28;;;;;;;18.17;14.38;;;;;;;14.54;81.34;101275.28;5017396;28;20113;-81
2021/09/08 06:32:54;;;;;;;18.00;12.63;;;;;;;14.64;81.07;101272.50;5048858;28;20052;-81
2021/09/08 06:35:19;;;;;;;14.38;11.27;;;;;;;14.73;81.02;101270.69;5047738;28;20033;-81
2021/09/08 06:37:44;;;;;;;13.45;11.52;;;;;;;14.84;80.93;101272.28;5044851;28;20491;-81
2021/09/08 06:40:11;;;;;;;16.30;11.88;;;;;;;14.94;80.82;101269.53;5050083;28;20581;-81
2021/09/08 06:42:36;;;;;;;16.65;12.88;;;;;;;15.05;80.69;101263.19;5018429;28;20033;-81
2021/09/08 06:45:02;;;;;;;18.70;13.55;;;;;;;15.16;80.47;101268.34;5047728;28;20037;-81
2021/09/08 06:47:28;;;;;;;19.52;15.30;;;;;;;15.23;80.46;101259.41;5047390;28;20044;-81
2021/09/08 06:49:53;;;;;;;16.67;12.40;;;;;;;15.31;80.35;101261.94;5043920;28;20134;-80
2021/09/08 06:52:20;;;;;;;16.80;13.55;;;;;;;15.31;80.61;101262.81;5049737;28;20036;-81
2021/09/08 06:54:46;;;;;;;19.23;14.30;;;;;;;15.37;80.97;101259.19;5050387;28;20037;-81
2021/09/08 06:57:13;;;;;;;21.25;14.68;;;;;;;15.44;81.62;101270.63;5045796;28;20029;-80
2021/09/08 06:59:41;;;;;;;18.65;15.38;;;;;;;15.52;81.64;101263.41;5049999;28;20043;-81
2021/09/08 07:02:07;;;;;;;16.02;13.65;;;;;;;15.64;81.43;101255.25;5047657;28;20033;-81
2021/09/08 07:04:33;;;;;;;16.63;13.90;;;;;;;15.80;81.22;101257.69;5045491;28;20506;-81
2021/09/08 07:06:58;;;;;;;20.25;15.75;;;;;;;15.89;81.36;101261.09;5045901;28;20041;-81
2021/09/08 07:09:24;;;;;;;18.48;15.75;;;;;;;15.99;81.45;101256.50;5048573;28;20031;-81
2021/09/08 07:11:49;;;;;;;20.15;17.17;;;;;;;16.13;81.28;101251.78;5050870;28;20503;-81
2021/09/08 07:14:14;;;;;;;22.02;18.15;;;;;;;16.28;80.52;101248.00;5044638;28;20033;-81
2021/09/08 07:16:40;;;;;;;19.80;16.95;;;;;;;16.45;80.21;101253.00;5048939;28;20032;-81
2021/09/08 07:19:05;;;;;;;24.65;20.95;;;;;;;16.62;80.22;101248.22;5047453;28;20041;-81
2021/09/08 07:21:30;;;;;;;22.90;20.50;;;;;;;16.77;79.39;101243.50;5047265;28;20036;-81
2021/09/08 07:23:56;;;;;;;22.02;19.63;;;;;;;16.89;79.11;101245.06;5043120;28;20044;-81
2021/09/08 07:26:21;;;;;;;23.73;20.73;;;;;;;17.03;78.71;101241.22;5046144;28;20052;-81
2021/09/08 07:28:46;;;;;;;23.83;18.50;;;;;;;17.15;77.93;101240.03;5045477;28;20064;-81
2021/09/08 07:31:12;;;;;;;19.25;15.73;;;;;;;17.30;77.62;101238.84;5045442;28;20042;-81
2021/09/08 07:33:37;;;;;;;20.35;16.30;;;;;;;17.40;77.17;101237.72;5044436;28;20040;-81
2021/09/08 07:36:03;;;;;;;19.67;17.00;;;;;;;17.49;76.81;101231.28;5044374;28;20558;-81
2021/09/08 07:38:28;;;;;;;15.77;13.57;;;;;;;17.54;76.42;101232.03;5051052;28;20032;-81
2021/09/08 07:40:55;;;;;;;20.63;13.75;;;;;;;17.59;76.19;101230.16;5049016;28;20083;-81
2021/09/08 07:46:11;;;;;;;17.17;13.32;;;;;;;17.81;75.40;101234.97;4974220;28;20078;-82
2021/09/08 07:48:38;;;;;;;15.68;12.98;;;;;;;17.92;75.24;101233.81;4976680;28;20047;-81
2021/09/08 07:51:03;;;;;;;16.75;14.40;;;;;;;18.07;74.79;101231.66;4976529;28;20098;-81
2021/09/08 07:53:28;;;;;;;17.27;15.18;;;;;;;18.22;74.06;101233.91;4983229;28;20491;-81
2021/09/08 07:55:54;;;;;;;16.42;14.60;;;;;;;18.37;73.96;101229.97;4977834;28;20030;-81
2021/09/08 07:58:19;;;;;;;15.85;12.80;;;;;;;18.53;73.08;101225.94;4976142;28;20130;-81
2021/09/08 08:00:44;;;;;;;15.43;13.27;;;;;;;18.66;72.43;101228.28;4966348;28;20074;-82
2021/09/08 08:03:10;;;;;;;17.58;14.77;;;;;;;18.65;71.19;101224.72;4971910;28;20043;-81
2021/09/08 08:05:35;;;;;;;17.17;13.98;;;;;;;18.80;71.65;101231.44;4982220;28;20038;-81
2021/09/08 08:08:01;;;;;;;15.88;13.82;;;;;;;18.94;71.51;101228.38;4976848;28;20127;-81
2021/09/08 08:10:27;;;;;;;17.90;15.43;;;;;;;19.09;70.72;101222.56;4971891;28;20513;-81
2021/09/08 08:12:53;;;;;;;19.75;15.80;;;;;;;19.17;70.40;101220.53;4973000;28;20073;-81
2021/09/08 08:15:19;;;;;;;16.55;14.02;;;;;;;19.30;70.86;101233.53;4979197;28;20035;-81
2021/09/08 08:17:46;;;;;;;18.17;14.25;;;;;;;19.41;70.58;101221.56;4983991;28;20030;-82
2021/09/08 08:20:12;;;;;;;15.50;12.65;;;;;;;19.48;69.02;101223.09;4983191;28;20042;-81
2021/09/08 08:22:40;;;;;;;14.80;12.05;;;;;;;19.53;69.74;101217.63;4981502;28;20057;-82
2021/09/08 08:25:09;;;;;;;14.00;11.57;;;;;;;19.57;69.49;101221.97;4962765;28;20548;-81
2021/09/08 08:27:34;;;;;;;15.45;13.90;;;;;;;19.68;69.41;101218.97;4976486;28;20051;-81
2021/09/08 08:30:01;;;;;;;15.60;13.68;;;;;;;19.81;69.07;101224.78;4959384;28;20127;-82
2021/09/08 08:32:26;;;;;;;15.68;13.63;;;;;;;19.88;68.88;101215.59;4955157;28;20042;-82
2021/09/08 08:34:52;;;;;;;22.35;16.88;;;;;;;20.00;68.83;101215.19;4977676;28;20061;-82
2021/09/08 08:37:18;;;;;;;18.77;16.60;;;;;;;20.13;68.06;101210.28;4973449;28;20113;-81
2021/09/08 08:39:43;;;;;;;16.88;14.07;;;;;;;20.27;67.83;101209.78;4971279;28;20417;-82
2021/09/08 08:42:18;;;;;;;16.25;12.95;;;;;;;20.42;67.72;101206.56;4987011;28;20309;-82
2021/09/08 08:44:43;;;;;;;16.80;12.73;;;;;;;20.50;66.75;101199.09;4992496;28;20058;-81
2021/09/08 08:47:09;;;;;;;17.48;14.55;;;;;;;20.60;66.70;101198.81;5018872;28;20117;-82
2021/09/08 08:49:35;;;;;;;14.77;12.23;;;;;;;20.61;66.32;101204.09;4993771;28;20045;-81
2021/09/08 08:52:01;;;;;;;17.80;14.65;;;;;;;20.73;66.43;101206.31;5019422;28;20041;-81
2021/09/08 08:54:26;;;;;;;16.20;14.50;;;;;;;20.91;66.17;101204.75;5017727;28;20034;-82
2021/09/08 08:56:52;;;;;;;14.68;13.13;;;;;;;21.02;65.47;101205.22;5019223;28;20042;-81
2021/09/08 08:59:18;;;;;;;17.02;13.07;;;;;;;21.17;65.27;101202.88;5017505;28;20046;-81
2021/09/08 09:01:43;;;;;;;17.48;13.90;;;;;;;21.28;64.52;101203.31;5018694;28;20506;-82
2021/09/08 09:04:11;;;;;;;18.40;16.00;;;;;;;21.29;63.72;101194.31;5019329;28;20128;-81
2021/09/08 09:06:40;;;;;;;18.27;15.75;;;;;;;21.41;64.20;101196.53;5010160;28;20120;-82
2021/09/08 09:09:08;;;;;;;19.98;16.30;;;;;;;21.60;63.92;101202.03;5019361;28;20057;-82
2021/09/08 09:11:35;;;;;;;19.58;16.63;;;;;;;21.77;63.70;101198.66;5019059;28;20045;-82
2021/09/08 09:14:03;;;;;;;16.40;14.40;;;;;;;21.89;62.64;101192.72;5018513;28;20036;-81
2021/09/08 09:16:29;;;;;;;16.63;14.85;;;;;;;22.00;62.63;101189.59;5010118;28;20029;-82
2021/09/08 09:18:54;;;;;;;17.00;15.05;;;;;;;22.16;62.17;101187.09;5017768;28;20038;-82
2021/09/08 09:21:22;;;;;;;15.25;13.43;;;;;;;22.30;61.29;101182.03;5016602;28;20038;-82
2021/09/08 09:23:54;;;;;;;14.80;13.20;;;;;;;22.36;60.34;101180.00;5016696;28;20049;-82
2021/09/08 09:26:24;;;;;;;16.25;13.50;;;;;;;22.35;60.20;101171.06;5018837;28;20072;-81
2021/09/08 09:28:50;;;;;;;18.88;15.65;;;;;;;22.52;60.65;101172.97;5021121;28;20563;-81
2021/09/08 09:31:20;;;;;;;17.05;13.75;;;;;;;22.56;60.70;101169.22;5021480;28;20044;-81
2021/09/08 09:33:54;;;;;;;20.38;15.45;;;;;;;22.68;59.88;101159.69;5021815;28;20036;-81
2021/09/08 09:36:30;;;;;;;21.60;19.27;;;;;;;22.77;59.01;101167.34;5018609;28;20041;-82
2021/09/08 09:38:57;;;;;;;17.80;15.60;;;;;;;22.94;58.99;101158.47;4985932;28;20041;-82
2021/09/08 09:41:25;;;;;;;22.55;17.60;;;;;;;23.06;58.32;101159.75;5001687;28;20037;-82
2021/09/08 09:43:50;;;;;;;16.45;14.75;;;;;;;23.17;58.69;101154.69;5011717;28;20048;-80
2021/09/08 09:46:16;;;;;;;16.58;14.55;;;;;;;23.33;58.25;101149.44;5003159;28;20045;-79
2021/09/08 09:48:41;;;;;;;14.80;12.10;;;;;;;23.22;57.18;101143.72;5026010;28;20033;-80
2021/09/08 09:51:13;;;;;;;18.30;16.05;;;;;;;23.32;56.82;101142.31;5026244;28;20060;-80
2021/09/08 09:53:39;;;;;;;;;;;;;;;23.36;56.39;101138.50;5019971;28;20155;-80
2021/09/08 09:56:04;;;;;;;22.30;19.90;;;;;;;23.55;56.10;101138.44;5018756;28;20406;-81
2021/09/08 09:58:30;;;;;;;20.73;18.58;;;;;;;23.65;56.48;101128.94;5019664;28;20451;-78
2021/09/08 10:00:55;;;;;;;17.40;15.55;;;;;;;23.72;55.73;101119.63;5015385;28;20049;-80
2021/09/08 10:03:22;;;;;;;17.42;15.20;;;;;;;23.87;55.63;101117.06;5014587;28;20029;-80
2021/09/08 10:05:48;;;;;;;21.13;18.25;;;;;;;24.02;55.67;101114.44;5015143;28;20046;-79
2021/09/08 10:08:19;;;;;;;18.27;16.13;;;;;;;24.00;55.19;101108.28;5021743;28;20041;-79
2021/09/08 10:10:46;;;;;;;17.08;15.27;;;;;;;24.12;55.44;101105.88;5025504;28;20041;-80
2021/09/08 10:13:19;;;;;;;16.30;14.70;;;;;;;24.20;54.15;101099.09;5025294;28;20411;-78
2021/09/08 10:15:45;;;;;;;15.55;13.93;;;;;;;24.25;54.10;101106.94;5022634;28;20099;-79
2021/09/08 10:18:12;;;;;;;15.63;14.00;;;;;;;24.33;53.61;101099.31;5019268;28;20025;-79
2021/09/08 10:20:38;;;;;;;17.30;13.88;;;;;;;24.43;52.90;101089.75;5001682;28;20041;-80
2021/09/08 10:23:08;;;;;;;18.23;16.08;;;;;;;24.48;53.05;101093.13;4999402;28;20038;-80
2021/09/08 10:25:35;;;;;;;16.25;14.30;;;;;;;24.63;52.87;101079.75;5015483;28;20089;-79
2021/09/08 10:28:04;;;;;;;17.08;15.13;;;;;;;24.76;51.23;101078.09;5007235;28;20120;-79
2021/09/08 10:30:29;;;;;;;17.77;15.80;;;;;;;24.85;51.91;101073.97;5016687;28;20053;-80
2021/09/08 10:32:56;;;;;;;16.95;14.52;;;;;;;24.94;51.35;101078.84;5019963;28;20068;-80
2021/09/08 10:35:22;;;;;;;20.73;17.40;;;;;;;25.05;51.58;101070.13;5001126;28;20069;-80
2021/09/08 10:37:52;;;;;;;18.08;16.15;;;;;;;25.15;51.24;101065.91;5015440;28;20038;-80
2021/09/08 10:40:21;;;;;;;18.92;16.17;;;;;;;25.24;50.42;101057.31;5016033;28;20503;-79
2021/09/08 10:42:57;;;;;;;14.02;11.80;;;;;;;25.21;49.87;101060.19;5004098;28;20050;-80
2021/09/08 10:45:28;;;;;;;12.23;11.00;;;;;;;25.29;49.39;101060.63;4978830;28;20038;-80
2021/09/08 10:47:56;;;;;;;13.83;12.17;;;;;;;25.35;49.46;101060.25;5017291;28;20042;-80
2021/09/08 10:50:42;;;;;;;15.52;13.93;;;;;;;25.40;50.05;101059.13;5019629;28;20038;-79
2021/09/08 10:53:27;;;;;;;12.70;11.35;;;;;;;25.45;47.53;101052.47;5018173;28;20403;-81
2021/09/08 10:55:53;;;;;;;11.13;9.85;;;;;;;25.42;47.28;101044.53;5014873;28;20033;-80
2021/09/08 10:58:19;;;;;;;11.68;9.63;;;;;;;25.51;46.17;101041.28;4999441;28;20048;-80
2021/09/08 11:00:45;;;;;;;12.23;9.65;;;;;;;25.66;45.32;101039.47;5016665;28;20033;-80
2021/09/08 11:03:16;;;;;;;10.65;9.55;;;;;;;25.75;44.86;101038.94;5015367;28;20048;-80
2021/09/08 11:05:49;;;;;;;12.18;9.90;;;;;;;25.85;43.74;101027.56;5014630;28;20065;-80
2021/09/08 11:08:33;;;;;;;11.73;8.85;;;;;;;25.90;44.53;101025.44;4996659;28;20032;-80
2021/09/08 11:11:10;;;;;;;13.57;10.93;;;;;;;25.98;44.38;101036.66;5022222;28;20042;-80
2021/09/08 11:13:35;;;;;;;10.68;9.32;;;;;;;26.09;44.68;101031.41;5012228;28;20514;-80
2021/09/08 11:16:02;;;;;;;11.73;9.88;;;;;;;26.12;43.54;101036.66;5015943;28;20046;-79